^^
Grace C. Lehan Memorial Weather Station Historical Data
Daily Summary for March 17, 2022 Units:  Both    English   Metric
Daily Weekly Monthly Yearly
  High: Low: Average:
Temperature: 79.8 °F /  26.6 °C 64.6 °F /  18.1 °C 71.3 °F /  21.8 °C
Dew Point: 65.7 °F /  18.7 °C 56.5 °F /  13.6 °C 60.9 °F /  16.1 °C
Humidity: 93% 51.1% 71%
Wind Speed: 4mph /  6.4km/h - 0.3mph /  0.5km/h
Wind Gust: 16mph /  25.7km/h - -
Wind- - South
Pressure: 30.00 in /  1015.8 hPa 29.85 in /  1010.7 hPa -
Precipitation: 0.05 in /  1.27 mm    
 
 
Tabular Data for March 17, 2022
Time Temperature Dew Point Pressure Wind Wind Speed Wind Gust Humidity Rainfall Rate (Hourly) solar
00:00 72.3 °F /  22.4 °C 56.7 °F /  13.7 °C 30.00in /  1015.8hPa Calm   9mph /  14.5km/h 58% 0.00in /  0mm 0 W/m2
00:09 72.2 °F /  22.3 °C 56.6 °F /  13.7 °C 30.00in /  1015.8hPa East 1.1mph /  1.8km/h 5mph /  8km/h 58% 0.00in /  0mm 0 W/m2
00:14 72.1 °F /  22.3 °C 56.5 °F /  13.6 °C 30.00in /  1015.8hPa East 0.1mph /  0.2km/h 5mph /  8km/h 58% 0.00in /  0mm 0 W/m2
00:19 72 °F /  22.2 °C 56.6 °F /  13.7 °C 30.00in /  1015.8hPa East 0.9mph /  1.4km/h 6mph /  9.7km/h 58.3% 0.00in /  0mm 0 W/m2
00:24 71.9 °F /  22.2 °C 56.5 °F /  13.6 °C 30.00in /  1015.8hPa ENE 0.7mph /  1.1km/h 6mph /  9.7km/h 58.5% 0.00in /  0mm 0 W/m2
00:29 71.8 °F /  22.1 °C 56.7 °F /  13.7 °C 30.00in /  1015.8hPa ENE 0.4mph /  0.6km/h 6mph /  9.7km/h 59% 0.00in /  0mm 0 W/m2
00:34 71.7 °F /  22.1 °C 56.6 °F /  13.7 °C 30.00in /  1015.8hPa ENE 1.4mph /  2.3km/h 6mph /  9.7km/h 59% 0.00in /  0mm 0 W/m2
00:39 71.6 °F /  22 °C 56.6 °F /  13.7 °C 30.00in /  1015.8hPa ENE 0.1mph /  0.2km/h 6mph /  9.7km/h 59.2% 0.00in /  0mm 0 W/m2
00:44 71.6 °F /  22 °C 56.9 °F /  13.8 °C 30.00in /  1015.8hPa Calm   6mph /  9.7km/h 59.8% 0.00in /  0mm 0 W/m2
00:49 71.5 °F /  21.9 °C 56.9 °F /  13.8 °C 30.00in /  1015.8hPa Calm   6mph /  9.7km/h 60% 0.00in /  0mm 0 W/m2
00:54 71.4 °F /  21.9 °C 56.8 °F /  13.8 °C 30.00in /  1015.8hPa ENE 0.3mph /  0.5km/h 6mph /  9.7km/h 60% 0.00in /  0mm 0 W/m2
00:59 71.3 °F /  21.8 °C 56.9 °F /  13.8 °C 30.00in /  1015.8hPa ENE 0.1mph /  0.2km/h 6mph /  9.7km/h 60.3% 0.00in /  0mm 0 W/m2
01:04 71.2 °F /  21.8 °C 56.8 °F /  13.8 °C 30.00in /  1015.8hPa Calm   6mph /  9.7km/h 60.3% 0.00in /  0mm 0 W/m2
01:09 71.2 °F /  21.8 °C 57.1 °F /  13.9 °C 30.00in /  1015.8hPa Calm     61% 0.00in /  0mm 0 W/m2
01:14 71.1 °F /  21.7 °C 57 °F /  13.9 °C 29.99in /  1015.5hPa ENE 0.3mph /  0.5km/h 4mph /  6.4km/h 61% 0.00in /  0mm 0 W/m2
01:19 70.9 °F /  21.6 °C 57.3 °F /  14.1 °C 29.99in /  1015.5hPa ENE 0.2mph /  0.3km/h 4mph /  6.4km/h 62% 0.00in /  0mm 0 W/m2
01:24 70.8 °F /  21.6 °C 57.2 °F /  14 °C 29.99in /  1015.5hPa Calm   4mph /  6.4km/h 62% 0.00in /  0mm 0 W/m2
01:29 70.7 °F /  21.5 °C 57.1 °F /  13.9 °C 29.99in /  1015.5hPa Calm   4mph /  6.4km/h 62% 0.00in /  0mm 0 W/m2
01:34 70.6 °F /  21.4 °C 57.1 °F /  13.9 °C 29.98in /  1015.1hPa Calm   4mph /  6.4km/h 62.3% 0.00in /  0mm 0 W/m2
01:39 70.6 °F /  21.4 °C 57.4 °F /  14.1 °C 29.98in /  1015.1hPa Calm     63% 0.00in /  0mm 0 W/m2
01:44 70.4 °F /  21.3 °C 57.3 °F /  14.1 °C 29.98in /  1015.1hPa ENE 0.4mph /  0.6km/h 4mph /  6.4km/h 63% 0.00in /  0mm 0 W/m2
01:49 70.4 °F /  21.3 °C 57.2 °F /  14 °C 29.98in /  1015.1hPa Calm   4mph /  6.4km/h 63% 0.00in /  0mm 0 W/m2
01:54 70.3 °F /  21.3 °C 57.1 °F /  13.9 °C 29.98in /  1015.1hPa Calm   4mph /  6.4km/h 63% 0.00in /  0mm 0 W/m2
01:59 70.2 °F /  21.2 °C 57 °F /  13.9 °C 29.98in /  1015.1hPa Calm   4mph /  6.4km/h 63% 0.00in /  0mm 0 W/m2
02:04 70.2 °F /  21.2 °C 57.1 °F /  13.9 °C 29.98in /  1015.1hPa Calm   4mph /  6.4km/h 63.2% 0.00in /  0mm 0 W/m2
02:09 70.1 °F /  21.2 °C 57.1 °F /  13.9 °C 29.98in /  1015.1hPa Calm     63.4% 0.00in /  0mm 0 W/m2
02:14 70.1 °F /  21.2 °C 57.4 °F /  14.1 °C 29.98in /  1015.1hPa Calm     64% 0.00in /  0mm 0 W/m2
02:19 70 °F /  21.1 °C 57.3 °F /  14.1 °C 29.97in /  1014.8hPa Calm     64% 0.00in /  0mm 0 W/m2
02:24 69.9 °F /  21.1 °C 57.2 °F /  14 °C 29.97in /  1014.8hPa Calm     64% 0.00in /  0mm 0 W/m2
02:29 69.9 °F /  21.1 °C 57.2 °F /  14 °C 29.97in /  1014.8hPa Calm     64% 0.00in /  0mm 0 W/m2
02:34 69.8 °F /  21 °C 57.1 °F /  13.9 °C 29.97in /  1014.8hPa Calm     64.1% 0.00in /  0mm 0 W/m2
02:39 69.7 °F /  20.9 °C 57.4 °F /  14.1 °C 29.97in /  1014.8hPa Calm     65% 0.00in /  0mm 0 W/m2
02:44 69.6 °F /  20.9 °C 57.4 °F /  14.1 °C 29.98in /  1015.1hPa Calm     65% 0.00in /  0mm 0 W/m2
02:49 69.5 °F /  20.8 °C 57.4 °F /  14.1 °C 29.98in /  1015.1hPa Calm     65.2% 0.00in /  0mm 0 W/m2
02:54 69.5 °F /  20.8 °C 57.7 °F /  14.3 °C 29.97in /  1014.8hPa Calm     66.2% 0.00in /  0mm 0 W/m2
02:59 69.4 °F /  20.8 °C 58 °F /  14.4 °C 29.97in /  1014.8hPa Calm     67.2% 0.00in /  0mm 0 W/m2
03:04 69.3 °F /  20.7 °C 58 °F /  14.4 °C 29.97in /  1014.8hPa Calm     67.3% 0.00in /  0mm 0 W/m2
03:09 69.1 °F /  20.6 °C 58.3 °F /  14.6 °C 29.97in /  1014.8hPa Calm     68.3% 0.00in /  0mm 0 W/m2
03:14 69 °F /  20.6 °C 58.4 °F /  14.7 °C 29.97in /  1014.8hPa Calm     68.8% 0.00in /  0mm 0 W/m2
03:19 68.9 °F /  20.5 °C 58.3 °F /  14.6 °C 29.97in /  1014.8hPa Calm     69% 0.00in /  0mm 0 W/m2
03:24 68.8 °F /  20.4 °C 58.3 °F /  14.6 °C 29.97in /  1014.8hPa Calm     69% 0.00in /  0mm 0 W/m2
03:29 68.7 °F /  20.4 °C 58.3 °F /  14.6 °C 29.97in /  1014.8hPa Calm     69.4% 0.00in /  0mm 0 W/m2
03:34 68.6 °F /  20.3 °C 58.4 °F /  14.7 °C 29.97in /  1014.8hPa Calm     70% 0.00in /  0mm 0 W/m2
03:39 68.5 °F /  20.3 °C 58.4 °F /  14.7 °C 29.97in /  1014.8hPa Calm     70% 0.00in /  0mm 0 W/m2
03:44 68.4 °F /  20.2 °C 58.3 °F /  14.6 °C 29.97in /  1014.8hPa Calm     70% 0.00in /  0mm 0 W/m2
03:49 68.4 °F /  20.2 °C 58.2 °F /  14.6 °C 29.97in /  1014.8hPa Calm     70% 0.00in /  0mm 0 W/m2
03:54 68.3 °F /  20.2 °C 58.4 °F /  14.7 °C 29.97in /  1014.8hPa Calm     70.7% 0.00in /  0mm 0 W/m2
03:59 68.2 °F /  20.1 °C 58.3 °F /  14.6 °C 29.97in /  1014.8hPa Calm     70.6% 0.00in /  0mm 0 W/m2
04:00 68.2 °F /  20.1 °C 58.4 °F /  14.7 °C 29.97in /  1014.8hPa Calm     71% 0.00in /  0mm 0 W/m2
04:09 68 °F /  20 °C 58.3 °F /  14.6 °C 29.97in /  1014.8hPa Calm     71% 0.00in /  0mm 0 W/m2
04:14 68 °F /  20 °C 58.4 °F /  14.7 °C 29.97in /  1014.8hPa Calm     71.3% 0.00in /  0mm 0 W/m2
04:19 67.9 °F /  19.9 °C 58.5 °F /  14.7 °C 29.97in /  1014.8hPa Calm     72% 0.00in /  0mm 0 W/m2
04:24 67.8 °F /  19.9 °C 58.4 °F /  14.7 °C 29.97in /  1014.8hPa Calm     72% 0.00in /  0mm 0 W/m2
04:29 67.7 °F /  19.8 °C 58.4 °F /  14.7 °C 29.96in /  1014.4hPa Calm     72% 0.00in /  0mm 0 W/m2
04:34 67.6 °F /  19.8 °C 58.3 °F /  14.6 °C 29.96in /  1014.4hPa Calm     72% 0.00in /  0mm 0 W/m2
04:39 67.6 °F /  19.8 °C 58.2 °F /  14.6 °C 29.96in /  1014.4hPa Calm     72% 0.00in /  0mm 0 W/m2
04:44 67.5 °F /  19.7 °C 58.2 °F /  14.6 °C 29.96in /  1014.4hPa Calm     72% 0.00in /  0mm 0 W/m2
04:49 67.5 °F /  19.7 °C 58.4 °F /  14.7 °C 29.97in /  1014.8hPa Calm     72.6% 0.00in /  0mm 0 W/m2
04:54 67.4 °F /  19.7 °C 58.5 °F /  14.7 °C 29.97in /  1014.8hPa Calm     73% 0.00in /  0mm 0 W/m2
04:59 67.4 °F /  19.7 °C 58.6 °F /  14.8 °C 29.97in /  1014.8hPa Calm     73.3% 0.00in /  0mm 0 W/m2
05:04 67.4 °F /  19.7 °C 59 °F /  15 °C 29.97in /  1014.8hPa Calm     74.6% 0.00in /  0mm 0 W/m2
05:09 67.3 °F /  19.6 °C 59.1 °F /  15.1 °C 29.97in /  1014.8hPa Calm     75% 0.00in /  0mm 0 W/m2
05:14 67.2 °F /  19.6 °C 59.3 °F /  15.2 °C 29.97in /  1014.8hPa Calm     75.7% 0.00in /  0mm 0 W/m2
05:19 67.1 °F /  19.5 °C 59.7 °F /  15.4 °C 29.97in /  1014.8hPa Calm     77.2% 0.00in /  0mm 0 W/m2
05:24 66.8 °F /  19.3 °C 59.8 °F /  15.4 °C 29.97in /  1014.8hPa Calm     78% 0.00in /  0mm 0 W/m2
05:29 66.5 °F /  19.2 °C 59.4 °F /  15.2 °C 29.97in /  1014.8hPa Calm     78% 0.00in /  0mm 0 W/m2
05:34 66.1 °F /  18.9 °C 59.3 °F /  15.2 °C 29.97in /  1014.8hPa Calm     78.7% 0.00in /  0mm 0 W/m2
05:39 65.9 °F /  18.8 °C 59.9 °F /  15.5 °C 29.97in /  1014.8hPa Calm     80.8% 0.00in /  0mm 0 W/m2
05:44 65.8 °F /  18.8 °C 60.2 °F /  15.7 °C 29.97in /  1014.8hPa Calm     82% 0.01in /  0.25mm 0 W/m2
05:49 65.7 °F /  18.7 °C 60.1 °F /  15.6 °C 29.97in /  1014.8hPa Calm     82.2% 0.01in /  0.25mm 0 W/m2
05:54 65.5 °F /  18.6 °C 60.2 °F /  15.7 °C 29.97in /  1014.8hPa Calm     83% 0.01in /  0.25mm 0 W/m2
05:59 65.4 °F /  18.6 °C 60.3 °F /  15.7 °C 29.97in /  1014.8hPa Calm     83.8% 0.01in /  0.25mm 0 W/m2
06:04 65.3 °F /  18.5 °C 60.6 °F /  15.9 °C 29.97in /  1014.8hPa Calm     84.8% 0.01in /  0.25mm 0 W/m2
06:09 65.2 °F /  18.4 °C 60.6 °F /  15.9 °C 29.97in /  1014.8hPa Calm     85% 0.01in /  0.25mm 0 W/m2
06:14 65.1 °F /  18.4 °C 60.5 °F /  15.8 °C 29.97in /  1014.8hPa Calm     85% 0.02in /  0.51mm 0 W/m2
06:19 65 °F /  18.3 °C 60.7 °F /  15.9 °C 29.98in /  1015.1hPa Calm     85.9% 0.02in /  0.51mm 0 W/m2
06:24 65 °F /  18.3 °C 60.8 °F /  16 °C 29.98in /  1015.1hPa Calm     86.2% 0.02in /  0.51mm 7 W/m2
06:29 64.9 °F /  18.3 °C 60.9 °F /  16.1 °C 29.98in /  1015.1hPa Calm     87% 0.02in /  0.51mm 11 W/m2
06:34 64.9 °F /  18.3 °C 61 °F /  16.1 °C 29.98in /  1015.1hPa Calm     87.2% 0.02in /  0.51mm 11 W/m2
06:39 64.9 °F /  18.3 °C 61.2 °F /  16.2 °C 29.98in /  1015.1hPa Calm     88% 0.02in /  0.51mm 11 W/m2
06:44 64.8 °F /  18.2 °C 61.2 °F /  16.2 °C 29.98in /  1015.1hPa Calm     88% 0.02in /  0.51mm 9 W/m2
06:49 64.8 °F /  18.2 °C 61.5 °F /  16.4 °C 29.98in /  1015.1hPa Calm     88.9% 0.02in /  0.51mm 14 W/m2
06:54 64.8 °F /  18.2 °C 61.5 °F /  16.4 °C 29.98in /  1015.1hPa Calm     89% 0.03in /  0.76mm 14 W/m2
06:59 64.7 °F /  18.2 °C 61.4 °F /  16.3 °C 29.98in /  1015.1hPa Calm     89% 0.03in /  0.76mm 18 W/m2
07:04 64.6 °F /  18.1 °C 61.3 °F /  16.3 °C 29.98in /  1015.1hPa Calm     89% 0.03in /  0.76mm 23 W/m2
07:09 64.6 °F /  18.1 °C 61.3 °F /  16.3 °C 29.98in /  1015.1hPa Calm     89% 0.02in /  0.51mm 25 W/m2
07:14 64.6 °F /  18.1 °C 61.5 °F /  16.4 °C 29.98in /  1015.1hPa Calm     89.8% 0.02in /  0.51mm 25 W/m2
07:19 64.6 °F /  18.1 °C 61.6 °F /  16.4 °C 29.98in /  1015.1hPa Calm     90% 0.02in /  0.51mm 33 W/m2
07:24 64.7 °F /  18.2 °C 61.7 °F /  16.5 °C 29.98in /  1015.1hPa Calm     90% 0.02in /  0.51mm 33 W/m2
07:29 64.6 °F /  18.1 °C 61.6 °F /  16.4 °C 29.98in /  1015.1hPa Calm     90% 0.02in /  0.51mm 23 W/m2
07:34 64.7 °F /  18.2 °C 61.7 °F /  16.5 °C 29.98in /  1015.1hPa Calm     90% 0.02in /  0.51mm 23 W/m2
07:39 64.7 °F /  18.2 °C 61.7 °F /  16.5 °C 29.98in /  1015.1hPa Calm     90% 0.02in /  0.51mm 35 W/m2
07:44 64.8 °F /  18.2 °C 62.1 °F /  16.7 °C 29.98in /  1015.1hPa Calm     91% 0.02in /  0.51mm 35 W/m2
07:49 64.9 °F /  18.3 °C 62.2 °F /  16.8 °C 29.98in /  1015.1hPa Calm     91% 0.03in /  0.76mm 23 W/m2
07:54 65 °F /  18.3 °C 62.4 °F /  16.9 °C 29.98in /  1015.1hPa Calm     91% 0.03in /  0.76mm 28 W/m2
07:59 65.1 °F /  18.4 °C 62.6 °F /  17 °C 29.98in /  1015.1hPa Calm     91.6% 0.03in /  0.76mm 30 W/m2
08:09 65.1 °F /  18.4 °C 62.7 °F /  17.1 °C 29.98in /  1015.1hPa Calm     92% 0.03in /  0.76mm 42 W/m2
08:14 65.1 °F /  18.4 °C 62.7 °F /  17.1 °C 29.98in /  1015.1hPa Calm     92% 0.03in /  0.76mm 47 W/m2
08:19 65.1 °F /  18.4 °C 62.7 °F /  17.1 °C 29.98in /  1015.1hPa Calm     92% 0.03in /  0.76mm 58 W/m2
08:24 65.2 °F /  18.4 °C 62.8 °F /  17.1 °C 29.98in /  1015.1hPa Calm     92% 0.03in /  0.76mm 83 W/m2
08:29 65.3 °F /  18.5 °C 63.1 °F /  17.3 °C 29.98in /  1015.1hPa Calm     92.6% 0.03in /  0.76mm 88 W/m2
08:34 65.5 °F /  18.6 °C 63.5 °F /  17.5 °C 29.98in /  1015.1hPa Calm     93% 0.03in /  0.76mm 88 W/m2
08:39 65.7 °F /  18.7 °C 63.6 °F /  17.6 °C 29.98in /  1015.1hPa Calm     93% 0.02in /  0.51mm 79 W/m2
08:44 65.9 °F /  18.8 °C 63.8 °F /  17.7 °C 29.98in /  1015.1hPa Calm     93% 0.02in /  0.51mm 72 W/m2
08:49 66 °F /  18.9 °C 63.9 °F /  17.7 °C 29.97in /  1014.8hPa Calm     93% 0.02in /  0.51mm 76 W/m2
08:54 66 °F /  18.9 °C 63.9 °F /  17.7 °C 29.98in /  1015.1hPa Calm     93% 0.02in /  0.51mm 77 W/m2
08:59 65.9 °F /  18.8 °C 63.7 °F /  17.6 °C 29.98in /  1015.1hPa Calm     92.6% 0.02in /  0.51mm 81 W/m2
09:04 65.8 °F /  18.8 °C 63.4 °F /  17.4 °C 29.97in /  1014.8hPa Calm     92% 0.02in /  0.51mm 79 W/m2
09:09 65.7 °F /  18.7 °C 63.3 °F /  17.4 °C 29.97in /  1014.8hPa Calm     92% 0.00in /  0mm 88 W/m2
09:14 65.8 °F /  18.8 °C 63.5 °F /  17.5 °C 29.97in /  1014.8hPa Calm     92% 0.00in /  0mm 109 W/m2
09:19 66 °F /  18.9 °C 63.9 °F /  17.7 °C 29.97in /  1014.8hPa Calm     92.8% 0.00in /  0mm 118 W/m2
09:24 66.2 °F /  19 °C 63.9 °F /  17.7 °C 29.97in /  1014.8hPa Calm     92% 0.00in /  0mm 116 W/m2
09:29 66.3 °F /  19.1 °C 63.9 °F /  17.7 °C 29.97in /  1014.8hPa Calm     92% 0.00in /  0mm 95 W/m2
09:34 66.3 °F /  19.1 °C 63.8 °F /  17.7 °C 29.97in /  1014.8hPa Calm     91.6% 0.00in /  0mm 118 W/m2
09:39 66.4 °F /  19.1 °C 64 °F /  17.8 °C 29.97in /  1014.8hPa Calm     92% 0.00in /  0mm 116 W/m2
09:44 66.6 °F /  19.2 °C 64.2 °F /  17.9 °C 29.97in /  1014.8hPa Calm     92% 0.00in /  0mm 134 W/m2
09:49 66.8 °F /  19.3 °C 64.4 °F /  18 °C 29.97in /  1014.8hPa Calm     92% 0.00in /  0mm 146 W/m2
09:54 67.1 °F /  19.5 °C 64.7 °F /  18.2 °C 29.97in /  1014.8hPa Calm     92% 0.00in /  0mm 167 W/m2
09:59 67.4 °F /  19.7 °C 65 °F /  18.3 °C 29.97in /  1014.8hPa Calm     92% 0.00in /  0mm 190 W/m2
10:04 67.7 °F /  19.8 °C 65.2 °F /  18.4 °C 29.97in /  1014.8hPa Calm     91.7% 0.00in /  0mm 223 W/m2
10:09 67.9 °F /  19.9 °C 65.1 °F /  18.4 °C 29.97in /  1014.8hPa Calm     90.8% 0.00in /  0mm 244 W/m2
10:14 68.1 °F /  20.1 °C 64.9 °F /  18.3 °C 29.97in /  1014.8hPa Calm     89.6% 0.00in /  0mm 262 W/m2
10:19 68.4 °F /  20.2 °C 65 °F /  18.3 °C 29.97in /  1014.8hPa Calm     89% 0.00in /  0mm 295 W/m2
10:24 68.8 °F /  20.4 °C 65.4 °F /  18.6 °C 29.97in /  1014.8hPa Calm     89% 0.00in /  0mm 325 W/m2
10:29 69.2 °F /  20.7 °C 65.4 °F /  18.6 °C 29.97in /  1014.8hPa ENE 0.2mph /  0.3km/h 3mph /  4.8km/h 87.5% 0.00in /  0mm 329 W/m2
10:34 69.6 °F /  20.9 °C 65.1 °F /  18.4 °C 29.97in /  1014.8hPa ENE 0.2mph /  0.3km/h 3mph /  4.8km/h 85.6% 0.00in /  0mm 352 W/m2
10:39 70.1 °F /  21.2 °C 65.2 °F /  18.4 °C 29.97in /  1014.8hPa NE 0.2mph /  0.3km/h 3mph /  4.8km/h 84.3% 0.00in /  0mm 425 W/m2
10:44 70.8 °F /  21.6 °C 65.2 °F /  18.4 °C 29.96in /  1014.4hPa North 0.5mph /  0.8km/h 7mph /  11.3km/h 82.6% 0.00in /  0mm 466 W/m2
10:49 71.5 °F /  21.9 °C 65.6 °F /  18.7 °C 29.96in /  1014.4hPa WNW 0.1mph /  0.2km/h 7mph /  11.3km/h 81.6% 0.00in /  0mm 490 W/m2
10:54 72.2 °F /  22.3 °C 65.7 °F /  18.7 °C 29.96in /  1014.4hPa WNW 0.3mph /  0.5km/h 7mph /  11.3km/h 80% 0.00in /  0mm 490 W/m2
10:59 72.9 °F /  22.7 °C 65.4 °F /  18.6 °C 29.96in /  1014.4hPa WNW 0.3mph /  0.5km/h 7mph /  11.3km/h 77.2% 0.00in /  0mm 499 W/m2
11:04 73.6 °F /  23.1 °C 65.7 °F /  18.7 °C 29.96in /  1014.4hPa NW 1.5mph /  2.4km/h 7mph /  11.3km/h 76.2% 0.00in /  0mm 526 W/m2
11:09 74.2 °F /  23.4 °C 65 °F /  18.3 °C 29.96in /  1014.4hPa NW 1.6mph /  2.6km/h 11mph /  17.7km/h 72.9% 0.00in /  0mm 613 W/m2
11:14 74.8 °F /  23.8 °C 65.2 °F /  18.4 °C 29.96in /  1014.4hPa Calm   11mph /  17.7km/h 72% 0.00in /  0mm 598 W/m2
11:19 75.5 °F /  24.2 °C 65.6 °F /  18.7 °C 29.95in /  1014.1hPa Calm   11mph /  17.7km/h 71.5% 0.00in /  0mm 608 W/m2
11:24 76 °F /  24.4 °C 64.8 °F /  18.2 °C 29.95in /  1014.1hPa NW 0.3mph /  0.5km/h 11mph /  17.7km/h 68.3% 0.00in /  0mm 504 W/m2
11:29 75.9 °F /  24.4 °C 64.5 °F /  18.1 °C 29.95in /  1014.1hPa NW 0.1mph /  0.2km/h 11mph /  17.7km/h 67.7% 0.00in /  0mm 482 W/m2
11:34 75.9 °F /  24.4 °C 64.3 °F /  17.9 °C 29.95in /  1014.1hPa NW 0.1mph /  0.2km/h 11mph /  17.7km/h 67.3% 0.00in /  0mm 524 W/m2
11:39 76 °F /  24.4 °C 64.5 °F /  18.1 °C 29.95in /  1014.1hPa NW 0.2mph /  0.3km/h 5mph /  8km/h 67.4% 0.00in /  0mm 673 W/m2
11:44 76.4 °F /  24.7 °C 64.1 °F /  17.8 °C 29.95in /  1014.1hPa NE 0.6mph /  1km/h 8mph /  12.9km/h 65.8% 0.00in /  0mm 671 W/m2
11:49 76.6 °F /  24.8 °C 63.4 °F /  17.4 °C 29.95in /  1014.1hPa ENE 1.1mph /  1.8km/h 8mph /  12.9km/h 63.8% 0.00in /  0mm 473 W/m2
11:54 76.6 °F /  24.8 °C 63.7 °F /  17.6 °C 29.95in /  1014.1hPa ENE 0.1mph /  0.2km/h 8mph /  12.9km/h 64.4% 0.00in /  0mm 413 W/m2
11:59 76.7 °F /  24.8 °C 63.7 °F /  17.6 °C 29.95in /  1014.1hPa ENE 0.9mph /  1.4km/h 8mph /  12.9km/h 64.1% 0.00in /  0mm 464 W/m2
12:00 76.8 °F /  24.9 °C 63.7 °F /  17.6 °C 29.95in /  1014.1hPa NNE 4mph /  6.4km/h 8mph /  12.9km/h 64% 0.00in /  0mm 464 W/m2
12:09 76.7 °F /  24.8 °C 62.5 °F /  16.9 °C 29.94in /  1013.8hPa ENE 1.2mph /  1.9km/h 6mph /  9.7km/h 61.5% 0.00in /  0mm 482 W/m2
12:14 76.8 °F /  24.9 °C 62.5 °F /  16.9 °C 29.94in /  1013.8hPa ENE 2mph /  3.2km/h 7mph /  11.3km/h 61.3% 0.00in /  0mm 512 W/m2
12:19 77.1 °F /  25.1 °C 62.8 °F /  17.1 °C 29.94in /  1013.8hPa NE 1mph /  1.6km/h 9mph /  14.5km/h 61.5% 0.00in /  0mm 540 W/m2
12:24 77.3 °F /  25.2 °C 62.9 °F /  17.2 °C 29.94in /  1013.8hPa NNW 1.5mph /  2.4km/h 9mph /  14.5km/h 61.3% 0.00in /  0mm 411 W/m2
12:29 77.4 °F /  25.2 °C 62.9 °F /  17.2 °C 29.94in /  1013.8hPa ENE 0.1mph /  0.2km/h 9mph /  14.5km/h 60.9% 0.00in /  0mm 374 W/m2
12:34 77.6 °F /  25.3 °C 63.2 °F /  17.3 °C 29.94in /  1013.8hPa NE 1.1mph /  1.8km/h 9mph /  14.5km/h 61.2% 0.00in /  0mm 362 W/m2
12:39 77.5 °F /  25.3 °C 62.6 °F /  17 °C 29.94in /  1013.8hPa East 0.6mph /  1km/h 6mph /  9.7km/h 60.2% 0.00in /  0mm 394 W/m2
12:44 77.5 °F /  25.3 °C 62.8 °F /  17.1 °C 29.94in /  1013.8hPa NE 0.2mph /  0.3km/h 6mph /  9.7km/h 60.6% 0.00in /  0mm 492 W/m2
12:49 77.5 °F /  25.3 °C 62.8 °F /  17.1 °C 29.94in /  1013.8hPa North 0.8mph /  1.3km/h 6mph /  9.7km/h 60.4% 0.00in /  0mm 492 W/m2
12:54 77.8 °F /  25.4 °C 63.1 °F /  17.3 °C 29.94in /  1013.8hPa North 0.7mph /  1.1km/h 6mph /  9.7km/h 60.7% 0.00in /  0mm 476 W/m2
12:59 78.1 °F /  25.6 °C 63 °F /  17.2 °C 29.94in /  1013.8hPa NW 0.6mph /  1km/h 6mph /  9.7km/h 59.9% 0.00in /  0mm 504 W/m2
13:04 78.4 °F /  25.8 °C 63.2 °F /  17.3 °C 29.94in /  1013.8hPa WNW 0.8mph /  1.3km/h 6mph /  9.7km/h 59.7% 0.00in /  0mm 603 W/m2
13:09 78.8 °F /  26 °C 63.5 °F /  17.5 °C 29.93in /  1013.4hPa WNW 0.5mph /  0.8km/h 6mph /  9.7km/h 59.5% 0.00in /  0mm 603 W/m2
13:14 79.1 °F /  26.2 °C 63.9 °F /  17.7 °C 29.93in /  1013.4hPa WNW 1mph /  1.6km/h 6mph /  9.7km/h 59.7% 0.00in /  0mm 485 W/m2
13:19 79.2 °F /  26.2 °C 63.1 °F /  17.3 °C 29.93in /  1013.4hPa NW 1mph /  1.6km/h 7mph /  11.3km/h 57.9% 0.00in /  0mm 450 W/m2
13:24 79.2 °F /  26.2 °C 62.3 °F /  16.8 °C 29.93in /  1013.4hPa Calm   7mph /  11.3km/h 56.3% 0.00in /  0mm 396 W/m2
13:29 79.2 °F /  26.2 °C 62.1 °F /  16.7 °C 29.93in /  1013.4hPa ENE 0.5mph /  0.8km/h 7mph /  11.3km/h 55.9% 0.00in /  0mm 540 W/m2
13:34 79.1 °F /  26.2 °C 62.2 °F /  16.8 °C 29.92in /  1013.1hPa North 1.2mph /  1.9km/h 9mph /  14.5km/h 56.4% 0.00in /  0mm 559 W/m2
13:39 79.2 °F /  26.2 °C 62.3 °F /  16.8 °C 29.92in /  1013.1hPa NE 1.1mph /  1.8km/h 9mph /  14.5km/h 56.3% 0.00in /  0mm 461 W/m2
13:44 79.3 °F /  26.3 °C 61.4 °F /  16.3 °C 29.92in /  1013.1hPa NNE 0.4mph /  0.6km/h 9mph /  14.5km/h 54.3% 0.00in /  0mm 480 W/m2
13:49 79.4 °F /  26.3 °C 60.8 °F /  16 °C 29.92in /  1013.1hPa WNW 1mph /  1.6km/h 9mph /  14.5km/h 53% 0.00in /  0mm 482 W/m2
13:54 79.5 °F /  26.4 °C 61.4 °F /  16.3 °C 29.92in /  1013.1hPa NNW 0.5mph /  0.8km/h 9mph /  14.5km/h 53.9% 0.00in /  0mm 403 W/m2
13:59 79.7 °F /  26.5 °C 60.5 °F /  15.8 °C 29.92in /  1013.1hPa NNW 0.3mph /  0.5km/h 9mph /  14.5km/h 51.9% 0.00in /  0mm 403 W/m2
14:04 79.7 °F /  26.5 °C 60.3 °F /  15.7 °C 29.92in /  1013.1hPa NNW 0.9mph /  1.4km/h 9mph /  14.5km/h 51.5% 0.00in /  0mm 399 W/m2
14:09 79.7 °F /  26.5 °C 60.3 °F /  15.7 °C 29.91in /  1012.8hPa NW 1.3mph /  2.1km/h 9mph /  14.5km/h 51.6% 0.00in /  0mm 329 W/m2
14:14 79.7 °F /  26.5 °C 60.4 °F /  15.8 °C 29.91in /  1012.8hPa North 0.2mph /  0.3km/h 9mph /  14.5km/h 51.7% 0.00in /  0mm 325 W/m2
14:19 79.8 °F /  26.6 °C 60.4 °F /  15.8 °C 29.91in /  1012.8hPa North 0.3mph /  0.5km/h 9mph /  14.5km/h 51.6% 0.00in /  0mm 290 W/m2
14:24 79.8 °F /  26.6 °C 60.1 °F /  15.6 °C 29.91in /  1012.8hPa NNE 0.1mph /  0.2km/h 9mph /  14.5km/h 51.1% 0.00in /  0mm 248 W/m2
14:29 79.6 °F /  26.4 °C 60.6 °F /  15.9 °C 29.91in /  1012.8hPa NNE 0.9mph /  1.4km/h 11mph /  17.7km/h 52.3% 0.00in /  0mm 213 W/m2
14:34 79.3 °F /  26.3 °C 62 °F /  16.7 °C 29.91in /  1012.8hPa NNW 1.4mph /  2.3km/h 11mph /  17.7km/h 55.6% 0.00in /  0mm 206 W/m2
14:39 78.8 °F /  26 °C 62.9 °F /  17.2 °C 29.91in /  1012.8hPa NNE 0.6mph /  1km/h 10mph /  16.1km/h 58.3% 0.00in /  0mm 206 W/m2
14:44 78 °F /  25.6 °C 62.7 °F /  17.1 °C 29.90in /  1012.4hPa NE 1mph /  1.6km/h 10mph /  16.1km/h 59.3% 0.00in /  0mm 199 W/m2
14:49 77.4 °F /  25.2 °C 61.7 °F /  16.5 °C 29.90in /  1012.4hPa ENE 1.4mph /  2.3km/h 10mph /  16.1km/h 58.3% 0.00in /  0mm 195 W/m2
14:54 76.7 °F /  24.8 °C 62.5 °F /  16.9 °C 29.90in /  1012.4hPa ENE 0.8mph /  1.3km/h 10mph /  16.1km/h 61.7% 0.00in /  0mm 239 W/m2
14:59 75.7 °F /  24.3 °C 63.1 °F /  17.3 °C 29.90in /  1012.4hPa Calm   10mph /  16.1km/h 64.9% 0.00in /  0mm 239 W/m2
15:04 75.3 °F /  24.1 °C 64.1 °F /  17.8 °C 29.90in /  1012.4hPa Calm   10mph /  16.1km/h 68.2% 0.00in /  0mm 216 W/m2
15:09 75.1 °F /  23.9 °C 63.9 °F /  17.7 °C 29.90in /  1012.4hPa Calm     68.1% 0.00in /  0mm 214 W/m2
15:14 75.2 °F /  24 °C 64.4 °F /  18 °C 29.90in /  1012.4hPa Calm   1mph /  1.6km/h 69.3% 0.00in /  0mm 206 W/m2
15:19 75.3 °F /  24.1 °C 64 °F /  17.8 °C 29.90in /  1012.4hPa Calm   1mph /  1.6km/h 68.1% 0.00in /  0mm 178 W/m2
15:24 75.4 °F /  24.1 °C 64.6 °F /  18.1 °C 29.90in /  1012.4hPa Calm   1mph /  1.6km/h 69.2% 0.00in /  0mm 315 W/m2
15:29 75.8 °F /  24.3 °C 64.8 °F /  18.2 °C 29.90in /  1012.4hPa Calm   1mph /  1.6km/h 68.9% 0.00in /  0mm 816 W/m2
15:34 76.5 °F /  24.7 °C 65.3 °F /  18.5 °C 29.90in /  1012.4hPa ENE 0.1mph /  0.2km/h 1mph /  1.6km/h 68.4% 0.00in /  0mm 872 W/m2
15:39 77.2 °F /  25.1 °C 64.5 °F /  18.1 °C 29.90in /  1012.4hPa ENE 1.3mph /  2.1km/h 8mph /  12.9km/h 65% 0.00in /  0mm 311 W/m2
15:44 77.4 °F /  25.2 °C 62.9 °F /  17.2 °C 29.90in /  1012.4hPa ENE 1.3mph /  2.1km/h 8mph /  12.9km/h 61.1% 0.00in /  0mm 264 W/m2
15:49 77.4 °F /  25.2 °C 63 °F /  17.2 °C 29.90in /  1012.4hPa ENE 0.3mph /  0.5km/h 8mph /  12.9km/h 61.2% 0.00in /  0mm 244 W/m2
15:54 77.3 °F /  25.2 °C 62.9 °F /  17.2 °C 29.90in /  1012.4hPa East 1.3mph /  2.1km/h 8mph /  12.9km/h 61.2% 0.00in /  0mm 211 W/m2
15:59 77.1 °F /  25.1 °C 62.9 °F /  17.2 °C 29.90in /  1012.4hPa ENE 2.1mph /  3.4km/h 8mph /  12.9km/h 61.6% 0.00in /  0mm 251 W/m2
16:00 77.1 °F /  25.1 °C 63.1 °F /  17.3 °C 29.90in /  1012.4hPa NE 2mph /  3.2km/h 8mph /  12.9km/h 62% 0.00in /  0mm 236 W/m2
16:09 76.9 °F /  24.9 °C 63 °F /  17.2 °C 29.90in /  1012.4hPa NE 0.2mph /  0.3km/h 4mph /  6.4km/h 62.2% 0.00in /  0mm 234 W/m2
16:14 76.9 °F /  24.9 °C 63.2 °F /  17.3 °C 29.90in /  1012.4hPa ENE 1.5mph /  2.4km/h 10mph /  16.1km/h 62.7% 0.00in /  0mm 232 W/m2
16:19 76.9 °F /  24.9 °C 62.3 °F /  16.8 °C 29.90in /  1012.4hPa ENE 0.9mph /  1.4km/h 10mph /  16.1km/h 60.8% 0.00in /  0mm 221 W/m2
16:24 76.7 °F /  24.8 °C 62.1 °F /  16.7 °C 29.90in /  1012.4hPa ENE 2.4mph /  3.9km/h 10mph /  16.1km/h 60.7% 0.00in /  0mm 206 W/m2
16:29 76.6 °F /  24.8 °C 60.8 °F /  16 °C 29.90in /  1012.4hPa East 1.1mph /  1.8km/h 10mph /  16.1km/h 58.2% 0.00in /  0mm 225 W/m2
16:34 76.5 °F /  24.7 °C 59.9 °F /  15.5 °C 29.90in /  1012.4hPa NE 2.2mph /  3.5km/h 10mph /  16.1km/h 56.4% 0.00in /  0mm 227 W/m2
16:39 76.5 °F /  24.7 °C 59.6 °F /  15.3 °C 29.90in /  1012.4hPa NE 1mph /  1.6km/h 9mph /  14.5km/h 55.9% 0.00in /  0mm 221 W/m2
16:44 76.4 °F /  24.7 °C 59.1 °F /  15.1 °C 29.90in /  1012.4hPa ENE 0.5mph /  0.8km/h 9mph /  14.5km/h 55% 0.00in /  0mm 221 W/m2
16:49 76.4 °F /  24.7 °C 59.8 °F /  15.4 °C 29.90in /  1012.4hPa ENE 0.5mph /  0.8km/h 9mph /  14.5km/h 56.5% 0.00in /  0mm 207 W/m2
16:54 76.4 °F /  24.7 °C 59.9 °F /  15.5 °C 29.90in /  1012.4hPa ENE 1mph /  1.6km/h 9mph /  14.5km/h 56.7% 0.00in /  0mm 199 W/m2
16:59 76.5 °F /  24.7 °C 60.5 °F /  15.8 °C 29.90in /  1012.4hPa NE 0.4mph /  0.6km/h 9mph /  14.5km/h 57.6% 0.00in /  0mm 193 W/m2
17:04 76.5 °F /  24.7 °C 60.6 °F /  15.9 °C 29.90in /  1012.4hPa ENE 1.2mph /  1.9km/h 9mph /  14.5km/h 57.8% 0.00in /  0mm 190 W/m2
17:09 76.5 °F /  24.7 °C 60.6 °F /  15.9 °C 29.90in /  1012.4hPa NE 0.6mph /  1km/h 6mph /  9.7km/h 58% 0.00in /  0mm 179 W/m2
17:14 76.4 °F /  24.7 °C 60.6 °F /  15.9 °C 29.90in /  1012.4hPa ENE 1.2mph /  1.9km/h 6mph /  9.7km/h 58% 0.00in /  0mm 171 W/m2
17:19 76.3 °F /  24.6 °C 60.5 °F /  15.8 °C 29.89in /  1012.1hPa ENE 1.4mph /  2.3km/h 7mph /  11.3km/h 58% 0.00in /  0mm 156 W/m2
17:24 76.1 °F /  24.5 °C 60.2 °F /  15.7 °C 29.89in /  1012.1hPa ENE 1.3mph /  2.1km/h 7mph /  11.3km/h 57.8% 0.00in /  0mm 144 W/m2
17:29 76 °F /  24.4 °C 60.3 °F /  15.7 °C 29.89in /  1012.1hPa ENE 2.5mph /  4km/h 7mph /  11.3km/h 58.3% 0.00in /  0mm 141 W/m2
17:34 75.8 °F /  24.3 °C 60.2 °F /  15.7 °C 29.90in /  1012.4hPa NE 1.3mph /  2.1km/h 7mph /  11.3km/h 58.4% 0.00in /  0mm 123 W/m2
17:39 75.7 °F /  24.3 °C 60.3 °F /  15.7 °C 29.89in /  1012.1hPa ENE 0.9mph /  1.4km/h 7mph /  11.3km/h 58.9% 0.00in /  0mm 120 W/m2
17:44 75.6 °F /  24.2 °C 60.2 °F /  15.7 °C 29.89in /  1012.1hPa NW 0.4mph /  0.6km/h 7mph /  11.3km/h 58.9% 0.00in /  0mm 113 W/m2
17:49 75.5 °F /  24.2 °C 60.3 °F /  15.7 °C 29.90in /  1012.4hPa NE 0.7mph /  1.1km/h 7mph /  11.3km/h 59.2% 0.00in /  0mm 116 W/m2
17:54 75.4 °F /  24.1 °C 60.2 °F /  15.7 °C 29.90in /  1012.4hPa NE 1.4mph /  2.3km/h 7mph /  11.3km/h 59.2% 0.00in /  0mm 116 W/m2
17:59 75.3 °F /  24.1 °C 60.4 °F /  15.8 °C 29.90in /  1012.4hPa North 0.4mph /  0.6km/h 7mph /  11.3km/h 59.9% 0.00in /  0mm 114 W/m2
18:04 75.2 °F /  24 °C 60.7 °F /  15.9 °C 29.89in /  1012.1hPa North 0.9mph /  1.4km/h 7mph /  11.3km/h 60.8% 0.00in /  0mm 109 W/m2
18:09 75.1 °F /  23.9 °C 60.8 °F /  16 °C 29.89in /  1012.1hPa ENE 1.3mph /  2.1km/h 5mph /  8km/h 61% 0.00in /  0mm 97 W/m2
18:14 74.9 °F /  23.8 °C 60.6 °F /  15.9 °C 29.89in /  1012.1hPa NE 0.1mph /  0.2km/h 5mph /  8km/h 61% 0.00in /  0mm 86 W/m2
18:19 74.7 °F /  23.7 °C 61 °F /  16.1 °C 29.90in /  1012.4hPa North 0.8mph /  1.3km/h 6mph /  9.7km/h 62.3% 0.00in /  0mm 63 W/m2
18:24 74.6 °F /  23.7 °C 61.1 °F /  16.2 °C 29.90in /  1012.4hPa NNW 0.5mph /  0.8km/h 7mph /  11.3km/h 62.9% 0.00in /  0mm 53 W/m2
18:29 74.4 °F /  23.6 °C 61 °F /  16.1 °C 29.90in /  1012.4hPa NNW 0.4mph /  0.6km/h 7mph /  11.3km/h 63% 0.00in /  0mm 44 W/m2
18:34 74.3 °F /  23.5 °C 61.5 °F /  16.4 °C 29.90in /  1012.4hPa NNW 0.4mph /  0.6km/h 7mph /  11.3km/h 64.4% 0.00in /  0mm 35 W/m2
18:39 74.1 °F /  23.4 °C 62 °F /  16.7 °C 29.90in /  1012.4hPa NNW 1.1mph /  1.8km/h 7mph /  11.3km/h 65.8% 0.00in /  0mm 28 W/m2
18:44 74 °F /  23.3 °C 62.3 °F /  16.8 °C 29.90in /  1012.4hPa NW 0.2mph /  0.3km/h 7mph /  11.3km/h 66.9% 0.00in /  0mm 25 W/m2
18:49 73.8 °F /  23.2 °C 62.6 °F /  17 °C 29.90in /  1012.4hPa NW 0.6mph /  1km/h 8mph /  12.9km/h 67.9% 0.00in /  0mm 23 W/m2
18:54 73.6 °F /  23.1 °C 62.4 °F /  16.9 °C 29.90in /  1012.4hPa NW 0.1mph /  0.2km/h 8mph /  12.9km/h 68% 0.00in /  0mm 19 W/m2
18:59 73.4 °F /  23 °C 62.1 °F /  16.7 °C 29.90in /  1012.4hPa NNW 0.6mph /  1km/h 8mph /  12.9km/h 67.7% 0.00in /  0mm 19 W/m2
19:04 73.1 °F /  22.8 °C 61.5 °F /  16.4 °C 29.90in /  1012.4hPa NNW 0.4mph /  0.6km/h 8mph /  12.9km/h 67% 0.00in /  0mm 19 W/m2
19:09 72.9 °F /  22.7 °C 61.3 °F /  16.3 °C 29.90in /  1012.4hPa NNW 0.7mph /  1.1km/h 6mph /  9.7km/h 67% 0.00in /  0mm 14 W/m2
19:14 72.7 °F /  22.6 °C 61.1 °F /  16.2 °C 29.90in /  1012.4hPa NNW 0.5mph /  0.8km/h 6mph /  9.7km/h 67% 0.00in /  0mm 12 W/m2
19:19 72.5 °F /  22.5 °C 60.6 °F /  15.9 °C 29.90in /  1012.4hPa NW 0.5mph /  0.8km/h 6mph /  9.7km/h 66.2% 0.00in /  0mm 11 W/m2
19:24 72.3 °F /  22.4 °C 60.4 °F /  15.8 °C 29.90in /  1012.4hPa Calm   6mph /  9.7km/h 66.2% 0.00in /  0mm 5 W/m2
19:29 72.1 °F /  22.3 °C 60.6 °F /  15.9 °C 29.90in /  1012.4hPa Calm   6mph /  9.7km/h 67% 0.00in /  0mm 0 W/m2
19:34 72 °F /  22.2 °C 60.5 °F /  15.8 °C 29.90in /  1012.4hPa NW 0.9mph /  1.4km/h 6mph /  9.7km/h 67.2% 0.00in /  0mm 0 W/m2
19:39 71.8 °F /  22.1 °C 60.5 °F /  15.8 °C 29.90in /  1012.4hPa NW 0.1mph /  0.2km/h 3mph /  4.8km/h 67.6% 0.00in /  0mm 0 W/m2
19:44 71.6 °F /  22 °C 60.5 °F /  15.8 °C 29.90in /  1012.4hPa NW 0.2mph /  0.3km/h 4mph /  6.4km/h 68% 0.00in /  0mm 0 W/m2
19:49 71.5 °F /  21.9 °C 60.6 °F /  15.9 °C 29.90in /  1012.4hPa NW 0.1mph /  0.2km/h 4mph /  6.4km/h 68.6% 0.00in /  0mm 0 W/m2
19:54 71.4 °F /  21.9 °C 60.9 °F /  16.1 °C 29.89in /  1012.1hPa NW 0.1mph /  0.2km/h 4mph /  6.4km/h 69.5% 0.00in /  0mm 0 W/m2
19:59 71.2 °F /  21.8 °C 61 °F /  16.1 °C 29.89in /  1012.1hPa Calm   4mph /  6.4km/h 70% 0.00in /  0mm 0 W/m2
20:00 71.2 °F /  21.8 °C 60.9 °F /  16.1 °C 29.89in /  1012.1hPa NW 1mph /  1.6km/h 4mph /  6.4km/h 70% 0.00in /  0mm 0 W/m2
20:09 71 °F /  21.7 °C 60.7 °F /  15.9 °C 29.89in /  1012.1hPa Calm     70% 0.00in /  0mm 0 W/m2
20:14 70.8 °F /  21.6 °C 60.6 °F /  15.9 °C 29.90in /  1012.4hPa Calm     70% 0.00in /  0mm 0 W/m2
20:19 70.7 °F /  21.5 °C 60.5 °F /  15.8 °C 29.90in /  1012.4hPa Calm     70% 0.00in /  0mm 0 W/m2
20:24 70.6 °F /  21.4 °C 60.4 °F /  15.8 °C 29.90in /  1012.4hPa Calm     70% 0.00in /  0mm 0 W/m2
20:29 70.6 °F /  21.4 °C 60.5 °F /  15.8 °C 29.90in /  1012.4hPa Calm     70.4% 0.00in /  0mm 0 W/m2
20:34 70.5 °F /  21.4 °C 60.6 °F /  15.9 °C 29.90in /  1012.4hPa Calm     71% 0.00in /  0mm 0 W/m2
20:39 70.4 °F /  21.3 °C 60.6 °F /  15.9 °C 29.90in /  1012.4hPa NW 0.1mph /  0.2km/h 3mph /  4.8km/h 71% 0.00in /  0mm 0 W/m2
20:44 70.3 °F /  21.3 °C 60.5 °F /  15.8 °C 29.90in /  1012.4hPa Calm   3mph /  4.8km/h 71.2% 0.00in /  0mm 0 W/m2
20:49 70.2 °F /  21.2 °C 60.5 °F /  15.8 °C 29.90in /  1012.4hPa Calm   3mph /  4.8km/h 71.3% 0.00in /  0mm 0 W/m2
20:54 70.1 °F /  21.2 °C 60.6 °F /  15.9 °C 29.90in /  1012.4hPa Calm   3mph /  4.8km/h 71.8% 0.00in /  0mm 0 W/m2
20:59 70 °F /  21.1 °C 60.5 °F /  15.8 °C 29.90in /  1012.4hPa Calm   3mph /  4.8km/h 72% 0.00in /  0mm 0 W/m2
21:04 69.9 °F /  21.1 °C 60.4 °F /  15.8 °C 29.90in /  1012.4hPa Calm   3mph /  4.8km/h 72% 0.00in /  0mm 0 W/m2
21:09 69.8 °F /  21 °C 60.5 °F /  15.8 °C 29.90in /  1012.4hPa Calm     72.3% 0.00in /  0mm 0 W/m2
21:14 69.8 °F /  21 °C 61 °F /  16.1 °C 29.90in /  1012.4hPa Calm     73.5% 0.00in /  0mm 0 W/m2
21:19 69.8 °F /  21 °C 61.3 °F /  16.3 °C 29.90in /  1012.4hPa Calm     74.5% 0.00in /  0mm 0 W/m2
21:24 69.7 °F /  20.9 °C 60.7 °F /  15.9 °C 29.90in /  1012.4hPa Calm     73.2% 0.00in /  0mm 0 W/m2
21:29 69.6 °F /  20.9 °C 60.9 °F /  16.1 °C 29.90in /  1012.4hPa NW 0.3mph /  0.5km/h 4mph /  6.4km/h 73.8% 0.00in /  0mm 0 W/m2
21:34 69.6 °F /  20.9 °C 60.9 °F /  16.1 °C 29.90in /  1012.4hPa Calm   4mph /  6.4km/h 73.7% 0.00in /  0mm 0 W/m2
21:39 69.6 °F /  20.9 °C 60.4 °F /  15.8 °C 29.89in /  1012.1hPa NW 0.3mph /  0.5km/h 5mph /  8km/h 72.6% 0.00in /  0mm 0 W/m2
21:44 69.6 °F /  20.9 °C 60.2 °F /  15.7 °C 29.89in /  1012.1hPa Calm   5mph /  8km/h 72% 0.00in /  0mm 0 W/m2
21:49 69.7 °F /  20.9 °C 60.2 °F /  15.7 °C 29.89in /  1012.1hPa NW 0.1mph /  0.2km/h 5mph /  8km/h 71.8% 0.00in /  0mm 0 W/m2
21:54 69.7 °F /  20.9 °C 59.9 °F /  15.5 °C 29.89in /  1012.1hPa West 0.4mph /  0.6km/h 7mph /  11.3km/h 71% 0.00in /  0mm 0 W/m2
21:59 69.7 °F /  20.9 °C 59.5 °F /  15.3 °C 29.89in /  1012.1hPa Calm   7mph /  11.3km/h 70.2% 0.00in /  0mm 0 W/m2
22:04 69.6 °F /  20.9 °C 59.6 °F /  15.3 °C 29.89in /  1012.1hPa WSW 0.2mph /  0.3km/h 7mph /  11.3km/h 70.6% 0.00in /  0mm 0 W/m2
22:09 69.5 °F /  20.8 °C 59.4 °F /  15.2 °C 29.89in /  1012.1hPa West 0.1mph /  0.2km/h 3mph /  4.8km/h 70.2% 0.00in /  0mm 0 W/m2
22:14 69.4 °F /  20.8 °C 59.3 °F /  15.2 °C 29.89in /  1012.1hPa Calm   3mph /  4.8km/h 70.2% 0.00in /  0mm 0 W/m2
22:19 69.3 °F /  20.7 °C 59.5 °F /  15.3 °C 29.89in /  1012.1hPa West 0.1mph /  0.2km/h 3mph /  4.8km/h 71% 0.00in /  0mm 0 W/m2
22:24 69.2 °F /  20.7 °C 59.4 °F /  15.2 °C 29.89in /  1012.1hPa West 0.3mph /  0.5km/h 4mph /  6.4km/h 71% 0.00in /  0mm 0 W/m2
22:29 69 °F /  20.6 °C 59.3 °F /  15.2 °C 29.88in /  1011.7hPa Calm   4mph /  6.4km/h 71% 0.00in /  0mm 0 W/m2
22:34 68.9 °F /  20.5 °C 59.5 °F /  15.3 °C 29.88in /  1011.7hPa West 0.9mph /  1.4km/h 5mph /  8km/h 71.8% 0.00in /  0mm 0 W/m2
22:39 68.8 °F /  20.4 °C 59.6 °F /  15.3 °C 29.88in /  1011.7hPa West 0.1mph /  0.2km/h 5mph /  8km/h 72.3% 0.00in /  0mm 0 W/m2
22:44 68.7 °F /  20.4 °C 59.8 °F /  15.4 °C 29.88in /  1011.7hPa Calm   5mph /  8km/h 73.2% 0.00in /  0mm 0 W/m2
22:49 68.5 °F /  20.3 °C 59.9 °F /  15.5 °C 29.87in /  1011.4hPa Calm   5mph /  8km/h 74% 0.00in /  0mm 0 W/m2
22:54 68.4 °F /  20.2 °C 59.8 °F /  15.4 °C 29.87in /  1011.4hPa Calm   5mph /  8km/h 74% 0.00in /  0mm 0 W/m2
22:59 68.2 °F /  20.1 °C 59.9 °F /  15.5 °C 29.87in /  1011.4hPa Calm   5mph /  8km/h 74.7% 0.00in /  0mm 0 W/m2
23:04 68.1 °F /  20.1 °C 59.6 °F /  15.3 °C 29.86in /  1011.1hPa West 0.1mph /  0.2km/h 5mph /  8km/h 74.4% 0.00in /  0mm 0 W/m2
23:09 67.9 °F /  19.9 °C 59.2 °F /  15.1 °C 29.86in /  1011.1hPa Calm   3mph /  4.8km/h 73.8% 0.00in /  0mm 0 W/m2
23:14 67.8 °F /  19.9 °C 59.2 °F /  15.1 °C 29.86in /  1011.1hPa West 0.3mph /  0.5km/h 6mph /  9.7km/h 73.9% 0.00in /  0mm 0 W/m2
23:19 67.7 °F /  19.8 °C 58.8 °F /  14.9 °C 29.86in /  1011.1hPa WNW 0.5mph /  0.8km/h 6mph /  9.7km/h 73% 0.00in /  0mm 0 W/m2
23:24 67.7 °F /  19.8 °C 58.7 °F /  14.8 °C 29.86in /  1011.1hPa WNW 0.8mph /  1.3km/h 7mph /  11.3km/h 72.8% 0.00in /  0mm 0 W/m2
23:29 67.8 °F /  19.9 °C 58.4 °F /  14.7 °C 29.85in /  1010.7hPa WNW 0.5mph /  0.8km/h 7mph /  11.3km/h 72% 0.00in /  0mm 0 W/m2
23:34 67.9 °F /  19.9 °C 58.5 °F /  14.7 °C 29.86in /  1011.1hPa WNW 1.9mph /  3.1km/h 16mph /  25.7km/h 72% 0.00in /  0mm 0 W/m2
23:39 68 °F /  20 °C 58.6 °F /  14.8 °C 29.86in /  1011.1hPa WNW 1.3mph /  2.1km/h 16mph /  25.7km/h 72% 0.00in /  0mm 0 W/m2
23:44 68 °F /  20 °C 58.7 °F /  14.8 °C 29.85in /  1010.7hPa Calm   16mph /  25.7km/h 72% 0.00in /  0mm 0 W/m2
23:49 68.1 °F /  20.1 °C 58.7 °F /  14.8 °C 29.85in /  1010.7hPa NW 0.4mph /  0.6km/h 16mph /  25.7km/h 72% 0.00in /  0mm 0 W/m2
23:54 68.1 °F /  20.1 °C 58.7 °F /  14.8 °C 29.85in /  1010.7hPa Calm   16mph /  25.7km/h 72% 0.00in /  0mm 0 W/m2
23:59 68.1 °F /  20.1 °C 59.1 °F /  15.1 °C 29.85in /  1010.7hPa WNW 1.1mph /  1.8km/h 16mph /  25.7km/h 72.9% 0.00in /  0mm 0 W/m2
Hartford County Weather
Compliments of Weather Underground - 2 mb